Terminal Aerodrome Forecast
Issued by NWS

Home | Current Version | Previous Version | Text Only | Print | Product List | Glossary Off
Versions: 1 2 3 4 5 6 7 8 9 10 11 12 13 14 15 16 17

000
FTUS43 KPAH 231133
TAFOWB
TAF
KOWB 231133Z 2312/2412 25009KT 6SM -SHRA BR BKN035 OVC090
      TEMPO 2312/2316 6SM -SHRA BR BKN025
     FM231600 26008G15KT P6SM VCSH BKN025
     FM232000 29009KT P6SM SCT060
     FM240200 25006KT P6SM VCSH BKN060
     FM240600 25006KT P6SM BKN060=

USA.gov is the U.S. government's official web portal to all federal, state and local government web resources and services.